This is the latest recevied weather packets stored in our database for station/object AD4WX-13. If no packets are shown the sender has not sent any weather packets the latest 10 day(s).
| Time | Temp. | Humidity | Pressure | Rain* | Wind** | Luminosity | Snow |
|---|---|---|---|---|---|---|---|
| 1777432801 | 17.22° C | 90% | 1012.2 hPa | 3.05 mm | - | 0 W/m² | - |
| 1777432207 | 17.22° C | 91% | 1011.8 hPa | 4.57 mm | - | 0 W/m² | - |
| 1777429755 | 17.22° C | 90% | 1011.1 hPa | 0 mm | - | 0 W/m² | - |
| 1777424217 | 17.22° C | 90% | 1011.5 hPa | 0 mm | - | 0 W/m² | - |
| 1777418791 | 19.44° C | 90% | 1014.2 hPa | 3.81 mm | - | 0 W/m² | - |
| 1777418164 | 20.56° C | 90% | 1013.6 hPa | 8.38 mm | - | 0 W/m² | - |
| 1777417566 | 21.11° C | 90% | 1013.2 hPa | 5.84 mm | - | 0 W/m² | - |
| 1777416326 | 21.67° C | 89% | 1012.5 hPa | 0 mm | - | 0 W/m² | - |
| 1777414467 | 22.22° C | 87% | 1011.4 hPa | 0 mm | - | 0 W/m² | - |
| 1777413294 | 22.78° C | 86% | 1010.5 hPa | 0 mm | - | 5 W/m² | - |
| 1777412032 | 23.33° C | 85% | 1009.9 hPa | 0 mm | - | 16 W/m² | - |
| 1777407802 | 26.11° C | 77% | 1010.4 hPa | 0 mm | - | 250 W/m² | - |
| 1777407206 | 26.11° C | 76% | 1010.5 hPa | 0 mm | - | 360 W/m² | - |
| 1777402814 | 26.67° C | 75% | 1012.9 hPa | 0 mm | - | 689 W/m² | - |
| 1777402183 | 26.11° C | 76% | 1013 hPa | 0 mm | - | 548 W/m² | - |
| 1777396573 | 25.56° C | 79% | 1013.5 hPa | 0 mm | - | 422 W/m² | - |
| 1777388760 | 21.67° C | 89% | 1014.8 hPa | 0 mm | - | 318 W/m² | - |
| 1777381982 | 19.44° C | 88% | 1014.2 hPa | 0 mm | - | 339 W/m² | - |
| 1777374811 | 17.22° C | 89% | 1012.4 hPa | 0 mm | - | 0 W/m² | - |
| 1777373620 | 17.22° C | 89% | 1012.1 hPa | 0 mm | - | 0 W/m² | - |
| 1777371757 | 17.22° C | 89% | 1011.8 hPa | 0 mm | - | 0 W/m² | - |
| 1777369896 | 17.22° C | 89% | 1011.2 hPa | 0 mm | - | 0 W/m² | - |
| 1777368682 | 17.22° C | 89% | 1010.9 hPa | 0 mm | - | 0 W/m² | - |
| 1777351375 | 21.11° C | 89% | 1009.4 hPa | 0 mm | - | 0 W/m² | - |
| 1777348850 | 21.67° C | 89% | 1009.6 hPa | 1.02 mm | - | 0 W/m² | - |
* Rain latest hour (hover to see other rain measurements)
** Current wind speed in m/s (hover to see current wind gust speed)